Time;durP1;ratioP1;P1;durP2;ratioP2;P2;SDS_P1;SDS_P2;PMS_P1;PMS_P2;Temp;Humidity;BMP_temperature;BMP_pressure;BME280_temperature;BME280_humidity;BME280_pressure;Samples;Min_cycle;Max_cycle;Signal;HPM_P1;HPM_P2
2023/03/31 00:10:00;;;;;;;5.00;1.30;;;12.70;93.70;;;;;;20917067;28;20607;-71
2023/03/31 00:20:18;;;;;;;4.77;1.53;;;12.70;93.80;;;;;;20916388;28;20238;-70
2023/03/31 00:30:20;;;;;;;5.30;1.70;;;12.70;93.80;;;;;;20915431;28;20252;-71
2023/03/31 00:40:22;;;;;;;3.47;1.10;;;12.90;93.80;;;;;;20914588;28;20591;-71
2023/03/31 00:50:34;;;;;;;3.57;1.50;;;12.90;93.80;;;;;;20914440;28;20214;-70
2023/03/31 01:00:36;;;;;;;6.50;1.50;;;12.90;93.80;;;;;;20913086;28;20232;-70
2023/03/31 01:10:46;;;;;;;3.90;1.30;;;12.90;93.90;;;;;;20912975;28;20212;-71
2023/03/31 01:20:57;;;;;;;5.83;1.50;;;13.00;94.20;;;;;;20912421;28;20238;-70
2023/03/31 01:31:15;;;;;;;4.40;1.37;;;13.00;94.00;;;;;;20912072;28;20205;-71
2023/03/31 01:41:52;;;;;;;6.37;1.50;;;13.00;94.20;;;;;;20911508;28;20245;-71
2023/03/31 01:52:05;;;;;;;2.83;1.30;;;12.90;94.20;;;;;;20911543;28;20265;-71
2023/03/31 02:02:24;;;;;;;3.57;1.50;;;12.90;94.30;;;;;;20910797;28;20252;-72
2023/03/31 02:12:29;;;;;;;3.83;1.90;;;12.90;94.30;;;;;;20919970;28;20212;-70
2023/03/31 02:22:35;;;;;;;7.17;2.00;;;12.90;94.40;;;;;;20925242;28;20273;-72
2023/03/31 02:32:40;;;;;;;5.10;2.10;;;13.00;94.30;;;;;;20924726;28;20614;-71
2023/03/31 02:42:42;;;;;;;6.23;2.20;;;12.90;94.30;;;;;;20924071;28;20628;-72
2023/03/31 02:53:02;;;;;;;7.20;2.13;;;13.00;94.10;;;;;;20923337;28;20213;-72
2023/03/31 03:03:21;;;;;;;8.00;2.00;;;13.00;94.10;;;;;;20922167;28;20243;-72
2023/03/31 03:13:29;;;;;;;7.67;1.87;;;12.90;94.00;;;;;;20921461;28;20719;-72
2023/03/31 03:23:32;;;;;;;6.03;1.90;;;12.90;94.30;;;;;;20920474;28;20243;-72
2023/03/31 03:33:33;;;;;;;6.67;1.97;;;12.90;94.30;;;;;;20920080;28;20258;-72
2023/03/31 03:43:35;;;;;;;6.17;2.10;;;12.90;94.40;;;;;;20919003;28;20232;-72
2023/03/31 03:53:36;;;;;;;5.43;1.80;;;12.90;94.50;;;;;;20918064;28;20263;-72
2023/03/31 04:03:38;;;;;;;10.83;2.00;;;12.90;94.70;;;;;;20917336;28;20393;-71
2023/03/31 04:13:40;;;;;;;9.17;2.73;;;12.80;95.00;;;;;;20916707;28;20215;-72
2023/03/31 04:23:45;;;;;;;8.03;1.90;;;12.80;95.20;;;;;;20915632;28;20291;-71
2023/03/31 04:33:46;;;;;;;6.77;2.73;;;12.80;95.50;;;;;;20914902;28;20258;-71
2023/03/31 04:43:48;;;;;;;6.17;2.10;;;12.70;95.70;;;;;;20914286;28;20239;-71
2023/03/31 04:53:50;;;;;;;6.30;2.17;;;12.60;95.80;;;;;;20913606;28;20259;-71
2023/03/31 05:03:52;;;;;;;3.93;1.63;;;12.60;96.10;;;;;;20911128;28;20236;-72
2023/03/31 05:13:53;;;;;;;5.40;1.73;;;12.50;96.20;;;;;;20912195;28;20207;-72
2023/03/31 05:23:56;;;;;;;8.53;2.20;;;12.50;96.40;;;;;;20911289;28;20235;-74
2023/03/31 05:45:00;;;;;;;4.97;1.93;;;12.50;96.50;;;;;;21067342;27;20554;-74
2023/03/31 05:55:03;;;;;;;6.17;2.20;;;12.60;96.40;;;;;;21065432;28;20215;-74
2023/03/31 06:05:05;;;;;;;6.83;2.10;;;12.60;96.60;;;;;;21065714;28;20286;-73
2023/03/31 06:15:07;;;;;;;6.03;1.80;;;12.60;96.60;;;;;;21062854;28;20210;-73
2023/03/31 06:25:09;;;;;;;6.67;2.23;;;12.50;97.00;;;;;;21063773;28;20258;-72
2023/03/31 06:35:10;;;;;;;4.87;2.27;;;12.50;97.20;;;;;;21063222;28;20578;-74
2023/03/31 06:45:12;;;;;;;10.17;2.20;;;12.50;97.50;;;;;;21061948;28;20218;-73
2023/03/31 06:55:14;;;;;;;10.13;2.70;;;12.50;97.70;;;;;;21012062;28;20340;-73
2023/03/31 07:05:17;;;;;;;4.77;2.40;;;12.50;97.90;;;;;;21005202;28;20218;-72
2023/03/31 07:15:20;;;;;;;5.30;2.53;;;12.50;98.40;;;;;;21004685;28;20203;-72
2023/03/31 07:25:21;;;;;;;6.63;2.77;;;12.50;98.50;;;;;;21003339;28;20206;-73
2023/03/31 07:35:23;;;;;;;9.60;2.70;;;12.50;98.70;;;;;;21002459;28;20572;-72
2023/03/31 07:53:16;;;;;;;10.07;3.03;;;12.50;99.00;;;;;;21073037;28;20657;-77
2023/03/31 08:03:18;;;;;;;7.23;3.60;;;12.50;99.20;;;;;;21066419;28;20662;-75
2023/03/31 08:13:20;;;;;;;9.13;3.83;;;12.60;99.30;;;;;;21065727;28;20210;-70
2023/03/31 08:23:22;;;;;;;8.57;4.10;;;12.90;99.30;;;;;;21064691;28;20701;-69
2023/03/31 08:33:24;;;;;;;7.43;3.90;;;12.90;99.30;;;;;;21064317;28;20214;-72
2023/03/31 08:43:31;;;;;;;6.77;3.77;;;12.80;99.20;;;;;;21062577;28;20786;-71
2023/03/31 08:53:41;;;;;;;10.20;3.80;;;13.20;99.40;;;;;;21062620;28;20670;-71
2023/03/31 09:04:16;;;;;;;7.80;4.10;;;13.50;99.10;;;;;;21011381;28;20235;-67
2023/03/31 09:14:39;;;;;;;4.63;2.20;;;12.10;99.90;;;;;;21005370;28;20218;-72
2023/03/31 09:32:32;;;;;;;5.90;1.63;;;10.70;99.90;;;;;;21113898;27;20575;-70
2023/03/31 09:42:35;;;;;;;3.50;1.83;;;10.60;99.90;;;;;;21087569;28;20569;-71
2023/03/31 10:04:01;;;;;;;4.50;1.63;;;11.10;99.90;;;;;;21148740;28;20312;-70
2023/03/31 10:14:10;;;;;;;3.57;1.37;;;11.40;99.90;;;;;;21125811;28;20253;-69
2023/03/31 10:24:16;;;;;;;4.77;1.80;;;11.70;99.90;;;;;;21012663;28;20324;-76
2023/03/31 10:34:19;;;;;;;5.43;1.93;;;;;;;;;;20973549;28;20667;-80
2023/03/31 10:44:37;;;;;;;2.27;1.10;;;;;;;;;;20923413;28;20240;-81
2023/03/31 10:54:46;;;;;;;7.03;0.80;;;10.10;99.90;;;;;;20922340;28;20209;-79
2023/03/31 11:05:06;;;;;;;2.30;1.00;;;9.50;99.90;;;;;;20920740;28;20232;-81
2023/03/31 11:15:19;;;;;;;1.73;0.80;;;9.80;99.90;;;;;;20919659;28;20680;-79
2023/03/31 11:25:28;;;;;;;2.40;0.80;;;10.50;99.90;;;;;;20918747;28;20297;-78
2023/03/31 11:35:49;;;;;;;3.47;1.30;;;11.40;99.90;;;;;;20918431;28;20206;-77
2023/03/31 11:45:56;;;;;;;3.37;1.17;;;12.40;99.90;;;;;;20915968;28;20236;-76
2023/03/31 11:56:01;;;;;;;5.93;1.97;;;12.70;99.60;;;;;;20916721;28;20251;-77
2023/03/31 12:06:06;;;;;;;5.73;1.53;;;;;;;;;;20915959;28;20731;-75
2023/03/31 12:16:37;;;;;;;1.90;1.07;;;12.90;97.90;;;;;;20914132;28;20220;-75
2023/03/31 12:27:11;;;;;;;3.77;1.40;;;13.30;97.10;;;;;;20913795;28;20260;-75
2023/03/31 12:37:36;;;;;;;2.57;1.10;;;13.50;95.60;;;;;;20914331;28;20660;-75
2023/03/31 12:48:48;;;;;;;2.83;1.20;;;13.90;94.60;;;;;;21020800;27;20539;-73
2023/03/31 12:58:50;;;;;;;3.17;1.03;;;14.60;93.60;;;;;;20913822;28;20234;-76
2023/03/31 13:08:56;;;;;;;6.87;1.53;;;15.00;92.50;;;;;;20981453;28;20207;-76
2023/03/31 13:18:58;;;;;;;10.57;6.77;;;15.40;91.60;;;;;;20982377;28;20280;-76
2023/03/31 13:29:16;;;;;;;7.10;2.00;;;15.40;91.40;;;;;;20980711;28;20207;-78
2023/03/31 13:39:51;;;;;;;3.43;1.60;;;15.30;91.60;;;;;;21003189;28;20235;-77
2023/03/31 13:50:09;;;;;;;3.67;1.30;;;16.00;90.50;;;;;;20995021;28;20207;-78
2023/03/31 14:00:36;;;;;;;6.23;1.70;;;16.10;89.20;;;;;;20924800;28;20235;-78
2023/03/31 14:10:41;;;;;;;4.97;1.43;;;16.10;87.10;;;;;;20923415;28;20212;-79
2023/03/31 14:20:56;;;;;;;2.53;1.10;;;16.90;84.50;;;;;;20922742;28;20317;-79
2023/03/31 14:31:11;;;;;;;3.53;1.20;;;19.00;77.10;;;;;;20922062;28;20204;-79
2023/03/31 14:41:19;;;;;;;5.60;1.20;;;18.70;71.30;;;;;;20919229;28;20239;-79
2023/03/31 14:51:28;;;;;;;3.20;1.10;;;15.90;76.20;;;;;;20918657;28;20245;-79
2023/03/31 15:01:34;;;;;;;5.47;2.70;;;15.30;78.10;;;;;;20919101;28;20232;-78
2023/03/31 15:11:36;;;;;;;4.70;1.60;;;14.90;81.50;;;;;;20917709;28;20210;-77
2023/03/31 15:21:38;;;;;;;3.70;1.20;;;14.80;83.40;;;;;;20917557;28;20239;-80
2023/03/31 15:31:40;;;;;;;3.20;1.40;;;17.40;81.40;;;;;;20917817;28;20253;-77
2023/03/31 15:41:46;;;;;;;4.30;1.37;;;18.70;75.70;;;;;;20915848;28;20239;-78
2023/03/31 15:51:50;;;;;;;4.27;1.10;;;18.30;71.10;;;;;;20915187;28;20714;-77
2023/03/31 16:05:56;;;;;;;1.80;1.03;;;16.10;73.30;;;;;;21068467;27;20564;-78
2023/03/31 16:15:58;;;;;;;3.40;1.27;;;16.10;73.90;;;;;;21067912;28;20255;-78
2023/03/31 16:26:01;;;;;;;2.77;1.20;;;14.50;78.70;;;;;;21066572;28;20212;-77
2023/03/31 16:36:03;;;;;;;1.87;0.90;;;12.60;92.00;;;;;;21066028;28;20206;-77
2023/03/31 16:46:05;;;;;;;2.47;1.07;;;11.70;96.90;;;;;;21065583;28;20217;-79
2023/03/31 16:56:07;;;;;;;2.07;1.00;;;12.10;98.30;;;;;;21064542;28;20234;-82
2023/03/31 17:06:11;;;;;;;4.03;1.30;;;12.40;98.10;;;;;;21062289;28;20204;-79
2023/03/31 17:18:19;;;;;;;3.03;1.43;;;12.40;98.00;;;;;;21238624;27;20549;-80
2023/03/31 17:28:21;;;;;;;4.13;1.50;;;12.40;97.20;;;;;;21254062;28;20210;-75
2023/03/31 17:38:24;;;;;;;3.50;1.37;;;12.30;96.90;;;;;;21240227;28;20210;-78
2023/03/31 17:59:28;;;;;;;3.53;1.53;;;12.30;96.60;;;;;;21068387;28;20559;-78
2023/03/31 18:09:30;;;;;;;5.00;1.30;;;12.40;96.40;;;;;;21067084;28;20668;-78
2023/03/31 18:19:32;;;;;;;5.20;1.40;;;12.40;96.50;;;;;;21066859;28;20662;-80
2023/03/31 18:29:35;;;;;;;3.13;1.33;;;;;;;;;;21065686;28;20203;-79
2023/03/31 18:39:37;;;;;;;5.20;1.50;;;12.30;96.50;;;;;;21064740;28;20578;-80
2023/03/31 18:49:38;;;;;;;2.63;1.10;;;12.30;96.30;;;;;;21064114;28;20716;-79
2023/03/31 18:59:40;;;;;;;2.37;1.30;;;12.30;96.20;;;;;;21063577;28;20240;-77
2023/03/31 19:09:42;;;;;;;3.13;1.50;;;12.30;95.40;;;;;;21013307;28;20207;-79
2023/03/31 19:24:09;;;;;;;2.47;1.00;;;12.10;94.70;;;;;;21068025;27;20563;-78
2023/03/31 19:42:58;;;;;;;4.03;1.43;;;12.00;94.50;;;;;;21237026;27;20554;-78
2023/03/31 19:53:00;;;;;;;4.13;1.10;;;12.00;94.70;;;;;;21235678;28;20611;-79
2023/03/31 20:03:02;;;;;;;5.60;1.40;;;12.00;95.00;;;;;;21235772;28;20213;-79
2023/03/31 20:13:05;;;;;;;3.23;1.27;;;11.80;95.30;;;;;;21234496;28;20212;-79
2023/03/31 20:23:07;;;;;;;5.33;1.53;;;11.60;95.30;;;;;;21233764;28;20241;-79
2023/03/31 20:33:09;;;;;;;2.90;1.10;;;11.50;95.40;;;;;;21233022;28;20270;-78
2023/03/31 20:43:11;;;;;;;2.83;1.10;;;;;;;;;;21231365;28;20206;-77
2023/03/31 20:53:13;;;;;;;2.40;1.27;;;11.50;95.70;;;;;;21181226;27;20209;-75
2023/03/31 21:03:14;;;;;;;2.90;1.20;;;11.30;95.80;;;;;;21177721;28;20671;-77
2023/03/31 21:13:16;;;;;;;3.57;1.20;;;11.40;96.10;;;;;;21196503;28;20247;-75
2023/03/31 21:23:19;;;;;;;3.57;1.33;;;11.30;96.20;;;;;;21184192;28;20209;-78
2023/03/31 21:33:23;;;;;;;3.63;1.27;;;11.20;96.30;;;;;;21171879;28;20588;-78
2023/03/31 21:43:24;;;;;;;4.47;1.70;;;11.20;96.30;;;;;;21171069;28;20207;-78
2023/03/31 21:53:28;;;;;;;2.67;1.03;;;11.20;96.50;;;;;;21169926;28;20233;-78
2023/03/31 22:03:33;;;;;;;3.87;1.27;;;11.10;96.30;;;;;;21168920;27;20206;-78
2023/03/31 22:13:35;;;;;;;3.97;1.70;;;11.20;96.50;;;;;;21168393;28;20227;-80
2023/03/31 22:23:37;;;;;;;3.90;1.40;;;11.10;96.30;;;;;;21167787;28;20206;-79
2023/03/31 22:33:39;;;;;;;2.13;1.00;;;11.10;96.40;;;;;;21167089;28;20603;-80
2023/03/31 22:43:40;;;;;;;4.47;1.60;;;11.10;96.40;;;;;;21166417;28;20577;-80
2023/03/31 22:53:51;;;;;;;2.90;1.20;;;11.00;96.40;;;;;;21165363;28;20231;-80
2023/03/31 23:03:53;;;;;;;5.93;1.33;;;11.00;96.60;;;;;;21165556;28;20211;-80
2023/03/31 23:13:55;;;;;;;3.83;1.33;;;11.00;96.40;;;;;;21163985;28;20229;-80
2023/03/31 23:24:02;;;;;;;5.07;1.57;;;11.10;96.40;;;;;;21163747;28;20264;-80
2023/03/31 23:34:04;;;;;;;4.47;1.40;;;11.30;96.30;;;;;;21145601;28;20231;-80
2023/03/31 23:44:06;;;;;;;2.57;1.40;;;11.40;96.10;;;;;;21163386;28;20205;-80
2023/03/31 23:54:07;;;;;;;3.57;1.40;;;11.40;95.90;;;;;;21164136;28;20228;-78
